createdAt,value
2019-05-23T00:01:34.245Z,94961.52
2019-05-23T00:04:04.906Z,94964.42
2019-05-23T00:06:32.806Z,94956.36
2019-05-23T00:09:00.112Z,94957.39
2019-05-23T00:11:39.833Z,94964.61
2019-05-23T00:14:19.618Z,94959.02
2019-05-23T00:16:47.360Z,94961.05
2019-05-23T00:19:13.563Z,94962.08
2019-05-23T00:21:41.905Z,94954.92
2019-05-23T00:24:07.830Z,94954.97
2019-05-23T00:26:35.648Z,94960.28
2019-05-23T00:29:10.034Z,94965.36
2019-05-23T00:31:36.321Z,94963.46
2019-05-23T00:34:03.439Z,94963.64
2019-05-23T00:36:31.352Z,94956.70
2019-05-23T00:38:57.996Z,94958.89
2019-05-23T00:41:24.710Z,94962.78
2019-05-23T00:43:51.112Z,94962.25
2019-05-23T00:46:18.525Z,94965.17
2019-05-23T00:48:45.361Z,94964.91
2019-05-23T00:51:11.444Z,94969.98
2019-05-23T00:53:38.069Z,94963.91
2019-05-23T00:56:04.157Z,94960.69
2019-05-23T01:00:59.994Z,94965.30
2019-05-23T01:03:28.381Z,94965.23
2019-05-23T01:05:54.748Z,94969.23
2019-05-23T01:08:20.983Z,94971.07
2019-05-23T01:10:48.173Z,94967.06
2019-05-23T01:13:15.672Z,94974.79
2019-05-23T01:15:42.786Z,94975.85
2019-05-23T01:18:10.132Z,94971.00
2019-05-23T01:20:43.940Z,94974.22
2019-05-23T01:23:10.340Z,94966.77
2019-05-23T01:25:37.459Z,94970.23
2019-05-23T01:28:05.767Z,94976.86
2019-05-23T01:30:37.286Z,94969.66
2019-05-23T01:33:03.847Z,94968.84
2019-05-23T01:35:30.668Z,94962.17
2019-05-23T01:37:57.531Z,94973.84
2019-05-23T01:40:24.182Z,94974.66
2019-05-23T01:42:50.901Z,94979.91
2019-05-23T01:45:18.732Z,94987.13
2019-05-23T01:47:47.031Z,94988.20
2019-05-23T01:50:15.151Z,94987.89
2019-05-23T01:52:41.359Z,94982.58
2019-05-23T01:55:09.764Z,94995.08
2019-05-23T01:57:35.777Z,94992.34
2019-05-23T02:00:10.517Z,94990.20
2019-05-23T02:02:35.490Z,94992.59
2019-05-23T02:05:03.995Z,94991.02
2019-05-23T02:07:30.210Z,94993.11
2019-05-23T02:09:56.403Z,94996.80
2019-05-23T02:12:22.803Z,94994.12
2019-05-23T02:14:48.917Z,94998.10
2019-05-23T02:17:15.423Z,94997.59
2019-05-23T02:19:42.936Z,95000.77
2019-05-23T02:22:10.420Z,95003.22
2019-05-23T02:24:37.503Z,95010.63
2019-05-23T02:27:04.539Z,95012.22
2019-05-23T02:29:30.552Z,95015.97
2019-05-23T02:31:58.341Z,95022.28
2019-05-23T02:34:24.978Z,95022.28
2019-05-23T02:36:51.676Z,95025.27
2019-05-23T02:39:36.404Z,95021.01
2019-05-23T02:42:21.327Z,95022.66
2019-05-23T02:44:47.638Z,95027.35
2019-05-23T02:47:15.947Z,95020.17
2019-05-23T02:49:42.103Z,95028.17
2019-05-23T02:52:18.950Z,95036.98
2019-05-23T02:54:47.082Z,95039.87
2019-05-23T02:57:15.084Z,95043.27
2019-05-23T02:59:45.142Z,95045.55
2019-05-23T03:02:39.278Z,95052.25
2019-05-23T03:05:09.300Z,95047.53
2019-05-23T03:07:35.335Z,95051.81
2019-05-23T03:10:04.887Z,95048.61
2019-05-23T03:12:30.782Z,95043.35
2019-05-23T03:14:58.369Z,95041.53
2019-05-23T03:17:28.380Z,95048.15
2019-05-23T03:19:56.213Z,95053.41
2019-05-23T03:22:31.228Z,95048.61
2019-05-23T03:25:00.215Z,95052.38
2019-05-23T03:27:26.741Z,95055.06
2019-05-23T03:29:53.048Z,95054.22
2019-05-23T03:32:39.869Z,95056.72
2019-05-23T03:35:17.442Z,95049.88
2019-05-23T03:37:43.529Z,95055.20
2019-05-23T03:40:12.176Z,95057.55
2019-05-23T03:42:40.014Z,95059.94
2019-05-23T03:45:08.730Z,95056.98
2019-05-23T03:47:36.158Z,95059.31
2019-05-23T03:50:06.160Z,95059.56
2019-05-23T03:52:33.096Z,95050.75
2019-05-23T03:55:01.003Z,95063.96
2019-05-23T03:57:28.306Z,95049.41
2019-05-23T03:59:56.143Z,95057.98
2019-05-23T04:02:23.242Z,95057.23
2019-05-23T04:04:50.378Z,95052.29
2019-05-23T04:07:16.882Z,95053.62
2019-05-23T04:09:43.010Z,95057.11
2019-05-23T04:12:09.604Z,95062.67
2019-05-23T04:14:36.013Z,95060.78
2019-05-23T04:17:02.224Z,95064.52
2019-05-23T04:19:28.129Z,95072.80
2019-05-23T04:24:17.789Z,95069.39
2019-05-23T04:26:44.392Z,95069.31
2019-05-23T04:29:10.795Z,95084.26
2019-05-23T04:31:36.909Z,95086.48
2019-05-23T04:34:03.572Z,95089.22
2019-05-23T04:36:30.426Z,95094.61
2019-05-23T04:38:56.933Z,95096.02
2019-05-23T04:41:23.637Z,95097.88
2019-05-23T04:43:49.677Z,95092.56
2019-05-23T04:46:15.915Z,95099.51
2019-05-23T04:48:42.228Z,95109.75
2019-05-23T04:51:08.644Z,95100.63
2019-05-23T04:53:35.454Z,95104.95
2019-05-23T04:56:02.471Z,95103.45
2019-05-23T04:58:28.667Z,95113.48
2019-05-23T05:00:54.979Z,95114.06
2019-05-23T05:03:21.601Z,95116.91
2019-05-23T05:05:48.208Z,95122.23
2019-05-23T05:08:14.746Z,95124.96
2019-05-23T05:10:42.365Z,95125.80
2019-05-23T05:13:08.763Z,95134.56
2019-05-23T05:15:35.378Z,95130.58
2019-05-23T05:18:02.547Z,95138.58
2019-05-23T05:20:28.652Z,95135.97
2019-05-23T05:22:54.931Z,95136.30
2019-05-23T05:25:20.929Z,95144.30
2019-05-23T05:27:47.027Z,95147.39
2019-05-23T05:30:14.887Z,95150.28
2019-05-23T05:32:45.348Z,95154.29
2019-05-23T05:35:09.048Z,95150.22
2019-05-23T05:37:35.748Z,95156.95
2019-05-23T05:40:03.989Z,95158.01
2019-05-23T05:42:30.527Z,95155.10
2019-05-23T05:44:56.550Z,95163.41
2019-05-23T05:47:23.061Z,95161.48
2019-05-23T05:49:49.596Z,95168.91
2019-05-23T05:52:15.729Z,95171.79
2019-05-23T05:54:41.923Z,95175.13
2019-05-23T05:57:08.161Z,95175.16
2019-05-23T05:59:34.562Z,95177.95
2019-05-23T06:02:01.008Z,95179.93
2019-05-23T06:04:27.540Z,95171.73
2019-05-23T06:06:55.647Z,95179.25
2019-05-23T06:09:26.172Z,95177.35
2019-05-23T06:11:52.773Z,95184.00
2019-05-23T06:14:19.087Z,95181.34
2019-05-23T06:16:45.643Z,95194.31
2019-05-23T06:19:12.703Z,95190.34
2019-05-23T06:21:40.608Z,95197.81
2019-05-23T06:24:07.006Z,95199.71
2019-05-23T06:26:33.517Z,95203.38
2019-05-23T06:28:59.830Z,95206.87
2019-05-23T06:31:26.239Z,95201.55
2019-05-23T06:33:52.948Z,95210.38
2019-05-23T06:36:19.058Z,95214.58
2019-05-23T06:38:45.916Z,95216.08
2019-05-23T06:41:12.970Z,95220.50
2019-05-23T06:43:39.187Z,95219.68
2019-05-23T06:46:05.917Z,95222.07
2019-05-23T06:48:33.030Z,95221.01
2019-05-23T06:50:59.167Z,95221.42
2019-05-23T06:53:25.267Z,95229.21
2019-05-23T06:55:51.416Z,95227.39
2019-05-23T06:58:17.836Z,95223.81
2019-05-23T07:00:44.453Z,95220.49
2019-05-23T07:03:11.180Z,95225.42
2019-05-23T07:05:37.604Z,95226.78
2019-05-23T07:08:04.218Z,95224.74
2019-05-23T07:10:30.208Z,95227.97
2019-05-23T07:12:56.303Z,95227.73
2019-05-23T07:15:23.429Z,95229.92
2019-05-23T07:17:50.175Z,95231.33
2019-05-23T07:20:16.703Z,95226.52
2019-05-23T07:22:43.126Z,95233.52
2019-05-23T07:25:09.679Z,95238.63
2019-05-23T07:27:35.803Z,95233.52
2019-05-23T07:30:05.312Z,95247.97
2019-05-23T07:32:31.367Z,95246.19
2019-05-23T07:34:57.395Z,95247.78
2019-05-23T07:37:23.567Z,95250.25
2019-05-23T07:39:50.077Z,95260.39
2019-05-23T07:42:16.390Z,95254.77
2019-05-23T07:44:48.296Z,95259.57
2019-05-23T07:47:12.630Z,95261.22
2019-05-23T07:49:38.647Z,95265.78
2019-05-23T07:52:04.754Z,95261.98
2019-05-23T07:54:32.698Z,95261.17
2019-05-23T07:56:59.439Z,95260.92
2019-05-23T07:59:26.508Z,95270.05
2019-05-23T08:01:57.227Z,95267.95
2019-05-23T08:04:23.470Z,95267.63
2019-05-23T08:06:49.610Z,95267.90
2019-05-23T08:09:17.328Z,95272.71
2019-05-23T08:11:43.349Z,95273.52
2019-05-23T08:14:11.981Z,95276.19
2019-05-23T08:16:37.621Z,95282.59
2019-05-23T08:19:04.556Z,95289.84
2019-05-23T08:21:30.554Z,95291.69
2019-05-23T08:23:56.860Z,95283.23
2019-05-23T08:26:24.988Z,95286.73
2019-05-23T08:29:12.706Z,95279.83
2019-05-23T08:31:19.375Z,95284.95
2019-05-23T08:33:45.524Z,95296.96
2019-05-23T08:36:12.526Z,95288.72
2019-05-23T08:38:39.148Z,95287.44
2019-05-23T08:41:05.359Z,95287.45
2019-05-23T08:43:31.478Z,95292.84
2019-05-23T08:45:57.794Z,95293.40
2019-05-23T08:48:24.216Z,95305.14
2019-05-23T08:50:51.507Z,95299.00
2019-05-23T08:53:18.039Z,95300.31
2019-05-23T08:55:44.145Z,95301.64
2019-05-23T08:58:11.359Z,95301.39
2019-05-23T09:00:40.888Z,95314.40
2019-05-23T09:03:07.022Z,95309.31
2019-05-23T09:05:34.307Z,95308.81
2019-05-23T09:08:01.343Z,95309.06
2019-05-23T09:10:29.151Z,95307.19
2019-05-23T09:12:55.900Z,95319.48
2019-05-23T09:15:22.592Z,95315.48
2019-05-23T09:17:53.479Z,95312.31
2019-05-23T09:20:17.349Z,95319.05
2019-05-23T09:22:43.444Z,95323.79
2019-05-23T09:25:10.047Z,95318.21
2019-05-23T09:27:36.457Z,95323.81
2019-05-23T09:30:06.057Z,95324.38
2019-05-23T09:32:32.062Z,95325.44
2019-05-23T09:34:58.084Z,95330.86
2019-05-23T09:37:24.399Z,95324.83
2019-05-23T09:39:50.745Z,95331.80
2019-05-23T09:42:16.939Z,95335.30
2019-05-23T09:44:43.094Z,95335.30
2019-05-23T09:47:09.072Z,95339.23
2019-05-23T09:49:35.174Z,95344.63
2019-05-23T09:52:01.759Z,95339.53
2019-05-23T09:54:27.825Z,95345.65
2019-05-23T09:56:54.055Z,95349.63
2019-05-23T09:59:20.191Z,95343.23
2019-05-23T10:01:47.386Z,95352.92
2019-05-23T10:04:13.447Z,95349.47
2019-05-23T10:06:39.882Z,95353.46
2019-05-23T10:09:07.307Z,95358.02
2019-05-23T10:11:33.821Z,95362.52
2019-05-23T10:14:01.040Z,95365.44
2019-05-23T10:16:27.340Z,95367.78
2019-05-23T10:18:53.880Z,95359.84
2019-05-23T10:21:19.982Z,95364.87
2019-05-23T10:23:46.124Z,95359.98
2019-05-23T10:26:13.237Z,95366.95
2019-05-23T10:28:39.240Z,95365.07
2019-05-23T10:31:07.143Z,95367.72
2019-05-23T10:33:33.159Z,95365.25
2019-05-23T10:36:01.165Z,95370.33
2019-05-23T10:38:29.431Z,95367.15
2019-05-23T10:40:55.347Z,95372.14
2019-05-23T10:43:21.447Z,95374.80
2019-05-23T10:45:47.651Z,95367.59
2019-05-23T10:48:14.862Z,95375.39
2019-05-23T10:50:44.849Z,95370.65
2019-05-23T10:53:09.494Z,95374.45
2019-05-23T10:55:35.609Z,95384.61
2019-05-23T10:58:02.517Z,95378.05
2019-05-23T11:00:29.644Z,95378.30
2019-05-23T11:02:56.100Z,95380.16
2019-05-23T11:05:22.267Z,95382.48
2019-05-23T11:07:49.196Z,95384.91
2019-05-23T11:10:16.586Z,95376.45
2019-05-23T11:12:42.804Z,95390.73
2019-05-23T11:15:09.314Z,95387.26
2019-05-23T11:17:35.546Z,95390.72
2019-05-23T11:20:05.341Z,95389.84
2019-05-23T11:22:31.440Z,95382.92
2019-05-23T11:24:57.470Z,95386.42
2019-05-23T11:27:23.601Z,95385.58
2019-05-23T11:29:49.763Z,95386.67
2019-05-23T11:32:19.843Z,95385.64
2019-05-23T11:34:44.550Z,95389.84
2019-05-23T11:37:10.653Z,95389.39
2019-05-23T11:39:41.971Z,95381.31
2019-05-23T11:42:05.228Z,95381.09
2019-05-23T11:44:31.253Z,95374.23
2019-05-23T11:46:57.360Z,95371.38
2019-05-23T11:49:23.884Z,95376.99
2019-05-23T11:51:50.036Z,95374.64
2019-05-23T11:54:16.165Z,95375.73
2019-05-23T11:56:42.451Z,95370.62
2019-05-23T11:59:08.642Z,95376.28
2019-05-23T12:01:36.643Z,95375.52
2019-05-23T12:04:07.726Z,95380.09
2019-05-23T12:06:53.749Z,95378.59
2019-05-23T12:09:05.389Z,95378.31
2019-05-23T12:11:36.361Z,95377.84
2019-05-23T12:14:00.196Z,95373.91
2019-05-23T12:16:27.402Z,95370.52
2019-05-23T12:18:53.413Z,95379.44
2019-05-23T12:21:19.933Z,95372.01
2019-05-23T12:23:46.066Z,95380.32
2019-05-23T12:26:12.075Z,95379.30
2019-05-23T12:28:38.381Z,95383.13
2019-05-23T12:31:05.617Z,95385.08
2019-05-23T12:33:31.823Z,95383.86
2019-05-23T12:35:57.891Z,95375.66
2019-05-23T12:38:23.895Z,95384.22
2019-05-23T12:40:50.073Z,95382.52
2019-05-23T12:43:16.175Z,95385.45
2019-05-23T12:45:42.303Z,95387.45
2019-05-23T12:48:19.312Z,95383.16
2019-05-23T12:50:46.821Z,95383.92
2019-05-23T12:53:14.939Z,95387.34
2019-05-23T12:55:41.152Z,95386.98
2019-05-23T12:58:07.164Z,95388.61
2019-05-23T13:00:35.672Z,95398.11
2019-05-23T13:03:02.140Z,95388.91
2019-05-23T13:05:28.666Z,95395.25
2019-05-23T13:07:55.226Z,95404.01
2019-05-23T13:10:24.805Z,95400.34
2019-05-23T13:12:49.639Z,95399.21
2019-05-23T13:15:16.851Z,95407.23
2019-05-23T13:17:42.893Z,95400.88
2019-05-23T13:20:09.195Z,95394.38
2019-05-23T13:22:35.383Z,95393.83
2019-05-23T13:25:01.685Z,95391.91
2019-05-23T13:27:28.497Z,95394.01
2019-05-23T13:29:54.604Z,95395.57
2019-05-23T13:32:20.709Z,95404.02
2019-05-23T13:34:46.850Z,95408.35
2019-05-23T13:37:16.973Z,95413.93
2019-05-23T13:39:43.112Z,95416.03
2019-05-23T13:42:09.235Z,95414.00
2019-05-23T13:44:36.122Z,95419.13
2019-05-23T13:47:02.682Z,95427.83
2019-05-23T13:49:28.821Z,95424.09
2019-05-23T13:51:55.469Z,95417.80
2019-05-23T13:54:22.197Z,95431.65
2019-05-23T13:56:48.354Z,95430.69
2019-05-23T13:59:14.447Z,95434.59
2019-05-23T14:01:41.140Z,95432.52
2019-05-23T14:04:07.405Z,95434.09
2019-05-23T14:06:33.515Z,95435.84
2019-05-23T14:08:59.660Z,95438.75
2019-05-23T14:11:25.863Z,95438.45
2019-05-23T14:13:59.704Z,95442.27
2019-05-23T14:17:02.599Z,95437.13
2019-05-23T14:19:29.745Z,95428.53
2019-05-23T14:21:56.263Z,95425.81
2019-05-23T14:24:22.389Z,95432.12
2019-05-23T14:26:56.424Z,95433.73
2019-05-23T14:29:22.535Z,95428.89
2019-05-23T14:31:53.833Z,95433.66
2019-05-23T14:34:19.943Z,95437.65
2019-05-23T14:36:47.955Z,95435.96
2019-05-23T14:39:16.096Z,95435.72
2019-05-23T14:41:53.090Z,95435.91
2019-05-23T14:44:19.229Z,95441.13
2019-05-23T14:46:47.142Z,95437.31
2019-05-23T14:49:15.071Z,95434.97
2019-05-23T14:51:43.168Z,95434.24
2019-05-23T14:54:13.835Z,95428.91
2019-05-23T14:56:40.847Z,95436.39
2019-05-23T14:59:06.963Z,95438.53
2019-05-23T15:01:34.081Z,95442.95
2019-05-23T15:04:00.081Z,95444.89
2019-05-23T15:06:26.221Z,95440.11
2019-05-23T15:08:52.733Z,95442.39
2019-05-23T15:11:18.903Z,95440.70
2019-05-23T15:13:45.005Z,95444.38
2019-05-23T15:16:11.261Z,95447.34
2019-05-23T15:18:37.379Z,95450.25
2019-05-23T15:21:03.611Z,95461.17
2019-05-23T15:23:29.614Z,95454.09
2019-05-23T15:25:55.762Z,95462.02
2019-05-23T15:28:21.997Z,95454.03
2019-05-23T15:30:47.953Z,95458.66
2019-05-23T15:33:14.077Z,95459.17
2019-05-23T15:35:40.130Z,95452.44
2019-05-23T15:38:06.132Z,95452.61
2019-05-23T15:40:32.182Z,95451.73
2019-05-23T15:42:58.399Z,95449.22
2019-05-23T15:45:24.635Z,95443.37
2019-05-23T15:47:51.353Z,95452.63
2019-05-23T15:50:19.552Z,95444.71
2019-05-23T15:52:47.597Z,95447.73
2019-05-23T15:58:14.018Z,95444.86
2019-05-23T16:01:00.323Z,95445.55
2019-05-23T16:03:45.222Z,95445.03
2019-05-23T16:06:14.238Z,95446.27
2019-05-23T16:08:40.380Z,95448.49
2019-05-23T16:11:06.790Z,95451.02
2019-05-23T16:13:33.600Z,95449.95
2019-05-23T16:16:00.223Z,95452.62
2019-05-23T16:18:26.230Z,95451.59
2019-05-23T16:20:52.164Z,95460.80
2019-05-23T16:23:18.453Z,95453.20
2019-05-23T16:25:44.636Z,95448.73
2019-05-23T16:28:11.129Z,95450.98
2019-05-23T16:30:37.801Z,95447.00
2019-05-23T16:33:03.906Z,95454.47
2019-05-23T16:35:30.353Z,95454.09
2019-05-23T16:38:03.284Z,95461.15
2019-05-23T16:40:29.864Z,95455.25
2019-05-23T16:42:56.013Z,95463.50
2019-05-23T16:45:22.118Z,95457.77
2019-05-23T16:47:48.403Z,95455.63
2019-05-23T16:50:14.595Z,95455.08
2019-05-23T16:52:40.613Z,95457.74
2019-05-23T16:55:09.218Z,95456.86
2019-05-23T16:57:37.127Z,95459.00
2019-05-23T17:00:16.344Z,95465.31
2019-05-23T17:02:44.182Z,95470.94
2019-05-23T17:05:27.871Z,95460.59
2019-05-23T17:08:11.953Z,95461.41
2019-05-23T17:10:51.881Z,95463.02
2019-05-23T17:13:29.287Z,95467.28
2019-05-23T17:16:03.316Z,95461.11
2019-05-23T17:18:49.263Z,95464.08
2019-05-23T17:21:17.273Z,95464.17
2019-05-23T17:23:47.728Z,95474.30
2019-05-23T17:26:18.762Z,95472.73
2019-05-23T17:28:46.682Z,95470.14
2019-05-23T17:31:14.633Z,95471.47
2019-05-23T17:33:40.851Z,95467.65
2019-05-23T17:36:06.957Z,95478.86
2019-05-23T17:38:33.065Z,95478.05
2019-05-23T17:40:59.170Z,95479.34
2019-05-23T17:43:25.347Z,95481.11
2019-05-23T17:45:51.439Z,95491.63
2019-05-23T17:48:18.042Z,95487.44
2019-05-23T17:50:44.198Z,95493.07
2019-05-23T17:53:10.189Z,95491.19
2019-05-23T17:55:36.428Z,95489.05
2019-05-23T17:58:02.764Z,95492.86
2019-05-23T18:00:33.769Z,95494.40
2019-05-23T18:03:00.080Z,95489.16
2019-05-23T18:05:26.344Z,95487.59
2019-05-23T18:07:52.921Z,95494.47
2019-05-23T18:10:19.571Z,95482.44
2019-05-23T18:12:45.981Z,95481.58
2019-05-23T18:15:13.003Z,95496.67
2019-05-23T18:17:39.561Z,95491.35
2019-05-23T18:20:06.560Z,95500.78
2019-05-23T18:22:32.863Z,95501.88
2019-05-23T18:24:59.892Z,95508.17
2019-05-23T18:27:26.154Z,95510.09
2019-05-23T18:29:52.572Z,95516.61
2019-05-23T18:32:20.588Z,95513.61
2019-05-23T18:34:47.267Z,95520.75
2019-05-23T18:37:13.478Z,95516.27
2019-05-23T18:39:40.700Z,95528.49
2019-05-23T18:42:07.153Z,95531.97
2019-05-23T18:44:33.357Z,95529.70
2019-05-23T18:47:01.365Z,95530.80
2019-05-23T18:49:28.067Z,95532.67
2019-05-23T18:51:54.576Z,95537.91
2019-05-23T18:54:20.788Z,95528.45
2019-05-23T18:56:46.897Z,95538.14
2019-05-23T18:59:13.401Z,95536.19
2019-05-23T19:01:39.609Z,95542.75
2019-05-23T19:04:06.412Z,95550.57
2019-05-23T19:06:32.969Z,95551.27
2019-05-23T19:08:59.675Z,95550.22
2019-05-23T19:11:25.786Z,95543.86
2019-05-23T19:13:51.702Z,95543.70
2019-05-23T19:16:17.721Z,95548.03
2019-05-23T19:18:43.984Z,95548.66
2019-05-23T19:21:12.434Z,95557.92
2019-05-23T19:23:39.049Z,95557.80
2019-05-23T19:26:05.249Z,95560.33
2019-05-23T19:28:31.262Z,95552.48
2019-05-23T19:30:57.581Z,95556.16
2019-05-23T19:33:24.510Z,95551.55
2019-05-23T19:35:51.107Z,95549.32
2019-05-23T19:38:17.329Z,95556.05
2019-05-23T19:40:44.361Z,95552.95
2019-05-23T19:43:12.349Z,95557.30
2019-05-23T19:45:38.474Z,95561.44
2019-05-23T19:48:04.867Z,95559.48
2019-05-23T19:50:31.108Z,95562.77
2019-05-23T19:52:57.119Z,95573.75
2019-05-23T19:55:23.255Z,95572.23
2019-05-23T19:57:49.508Z,95574.49
2019-05-23T20:00:17.629Z,95575.19
2019-05-23T20:02:51.550Z,95570.55
2019-05-23T20:05:35.830Z,95574.52
2019-05-23T20:08:02.012Z,95569.38
2019-05-23T20:10:29.187Z,95568.38
2019-05-23T20:12:55.297Z,95565.06
2019-05-23T20:15:22.389Z,95564.75
2019-05-23T20:17:51.878Z,95565.06
2019-05-23T20:20:16.710Z,95564.70
2019-05-23T20:22:42.715Z,95562.52
2019-05-23T20:25:09.146Z,95557.58
2019-05-23T20:27:35.147Z,95559.50
2019-05-23T20:30:01.261Z,95555.20
2019-05-23T20:32:27.364Z,95556.53
2019-05-23T20:34:53.562Z,95548.28
2019-05-23T20:37:21.628Z,95547.55
2019-05-23T20:39:47.658Z,95545.52
2019-05-23T20:42:13.765Z,95547.36
2019-05-23T20:44:40.008Z,95547.36
2019-05-23T20:47:08.152Z,95548.69
2019-05-23T20:49:34.202Z,95549.89
2019-05-23T20:52:00.245Z,95558.91
2019-05-23T20:54:26.353Z,95552.19
2019-05-23T20:56:52.362Z,95560.98
2019-05-23T20:59:18.467Z,95559.52
2019-05-23T21:01:44.911Z,95561.98
2019-05-23T21:04:11.113Z,95559.78
2019-05-23T21:06:37.110Z,95560.88
2019-05-23T21:09:05.620Z,95564.52
2019-05-23T21:11:31.779Z,95568.55
2019-05-23T21:13:57.787Z,95559.19
2019-05-23T21:16:23.898Z,95564.43
2019-05-23T21:18:50.442Z,95563.16
2019-05-23T21:21:16.611Z,95560.80
2019-05-23T21:23:42.821Z,95564.20
2019-05-23T21:26:08.929Z,95562.80
2019-05-23T21:28:35.294Z,95569.16
2019-05-23T21:31:01.944Z,95563.53
2019-05-23T21:33:28.360Z,95573.37
2019-05-23T21:35:54.757Z,95574.45
2019-05-23T21:38:21.061Z,95574.17
2019-05-23T21:40:47.167Z,95572.70
2019-05-23T21:43:13.267Z,95584.80
2019-05-23T21:45:39.970Z,95577.34
2019-05-23T21:48:06.143Z,95577.39
2019-05-23T21:50:32.227Z,95567.98
2019-05-23T21:52:58.266Z,95572.32
2019-05-23T21:55:38.538Z,95571.63
2019-05-23T21:58:05.768Z,95567.22
2019-05-23T22:01:07.755Z,95565.66
2019-05-23T22:03:46.142Z,95563.05
2019-05-23T22:06:14.156Z,95571.33
2019-05-23T22:08:40.472Z,95562.03
2019-05-23T22:11:06.870Z,95567.50
2019-05-23T22:13:33.003Z,95564.25
2019-05-23T22:15:59.287Z,95569.56
2019-05-23T22:18:25.899Z,95564.25
2019-05-23T22:20:52.006Z,95566.12
2019-05-23T22:23:18.518Z,95561.08
2019-05-23T22:25:44.527Z,95573.63
2019-05-23T22:28:10.567Z,95566.16
2019-05-23T22:30:36.896Z,95563.28
2019-05-23T22:33:03.977Z,95571.33
2019-05-23T22:35:30.414Z,95564.96
2019-05-23T22:37:56.699Z,95564.22
2019-05-23T22:40:23.040Z,95561.91
2019-05-23T22:42:49.085Z,95559.19
2019-05-23T22:45:17.216Z,95551.99
2019-05-23T22:47:43.250Z,95552.34
2019-05-23T22:50:09.560Z,95550.84
2019-05-23T22:52:35.674Z,95551.45
2019-05-23T22:55:01.888Z,95553.31
2019-05-23T22:57:27.930Z,95545.80
2019-05-23T22:59:53.961Z,95543.05
2019-05-23T23:02:20.069Z,95540.03
2019-05-23T23:04:45.973Z,95549.12
2019-05-23T23:07:12.818Z,95541.38
2019-05-23T23:09:38.938Z,95544.64
2019-05-23T23:12:05.134Z,95543.27
2019-05-23T23:14:31.240Z,95540.66
2019-05-23T23:16:57.592Z,95539.69
2019-05-23T23:19:23.929Z,95540.16
2019-05-23T23:21:49.845Z,95540.05
2019-05-23T23:24:16.282Z,95539.95
2019-05-23T23:26:42.424Z,95543.09
2019-05-23T23:29:08.638Z,95536.11
2019-05-23T23:31:34.871Z,95534.32
2019-05-23T23:34:00.975Z,95535.37
2019-05-23T23:36:27.123Z,95536.85
2019-05-23T23:38:53.230Z,95540.75
2019-05-23T23:41:19.338Z,95544.38
2019-05-23T23:43:58.660Z,95539.66
2019-05-23T23:46:32.459Z,95535.22
2019-05-23T23:49:16.827Z,95536.98
2019-05-23T23:52:01.296Z,95536.42
2019-05-23T23:54:45.531Z,95535.82
2019-05-23T23:57:29.900Z,95536.17
2019-05-23T23:59:57.918Z,95538.93
